sensor_id;sensor_type;location;lat;lon;timestamp;pressure;altitude;pressure_sealevel;temperature;humidity
18504;BME280;9381;54.244;10.074;2024-03-23T00:57:08;100235.97;;;8.36;100.00
18504;BME280;9381;54.244;10.074;2024-03-23T01:02:08;100220.22;;;8.33;100.00
18504;BME280;9381;54.244;10.074;2024-03-23T01:07:09;100220.41;;;8.38;100.00
18504;BME280;9381;54.244;10.074;2024-03-23T01:12:09;100206.34;;;8.36;100.00
18504;BME280;9381;54.244;10.074;2024-03-23T01:17:09;100203.03;;;8.28;100.00
18504;BME280;9381;54.244;10.074;2024-03-23T01:22:10;100197.91;;;8.20;100.00
18504;BME280;9381;54.244;10.074;2024-03-23T01:27:10;100186.28;;;8.26;100.00
18504;BME280;9381;54.244;10.074;2024-03-23T01:32:11;100172.84;;;8.19;100.00
18504;BME280;9381;54.244;10.074;2024-03-23T01:37:11;100164.94;;;8.24;100.00
18504;BME280;9381;54.244;10.074;2024-03-23T01:42:11;100168.47;;;8.18;100.00
18504;BME280;9381;54.244;10.074;2024-03-23T01:47:12;100169.50;;;8.17;100.00
18504;BME280;9381;54.244;10.074;2024-03-23T01:52:12;100165.97;;;8.17;100.00
18504;BME280;9381;54.244;10.074;2024-03-23T01:57:12;100158.53;;;8.12;100.00
18504;BME280;9381;54.244;10.074;2024-03-23T02:02:14;100154.63;;;8.02;100.00
18504;BME280;9381;54.244;10.074;2024-03-23T02:07:14;100152.78;;;8.02;100.00
18504;BME280;9381;54.244;10.074;2024-03-23T02:12:14;100140.19;;;7.90;100.00
18504;BME280;9381;54.244;10.074;2024-03-23T02:17:15;100131.56;;;7.81;100.00
18504;BME280;9381;54.244;10.074;2024-03-23T02:22:16;100117.81;;;7.89;100.00
18504;BME280;9381;54.244;10.074;2024-03-23T02:27:16;100123.69;;;7.80;100.00
18504;BME280;9381;54.244;10.074;2024-03-23T02:32:16;100107.94;;;7.83;100.00
18504;BME280;9381;54.244;10.074;2024-03-23T02:37:16;100119.53;;;7.77;100.00
18504;BME280;9381;54.244;10.074;2024-03-23T02:42:17;100104.09;;;7.60;100.00
18504;BME280;9381;54.244;10.074;2024-03-23T02:47:17;100096.81;;;7.67;100.00
18504;BME280;9381;54.244;10.074;2024-03-23T02:52:18;100095.63;;;7.56;100.00
18504;BME280;9381;54.244;10.074;2024-03-23T02:57:18;100088.41;;;7.44;100.00
18504;BME280;9381;54.244;10.074;2024-03-23T03:02:19;100085.28;;;7.53;100.00
18504;BME280;9381;54.244;10.074;2024-03-23T03:07:19;100075.97;;;7.49;100.00
18504;BME280;9381;54.244;10.074;2024-03-23T03:12:20;100058.78;;;7.50;100.00
18504;BME280;9381;54.244;10.074;2024-03-23T03:17:20;100062.94;;;7.46;100.00
18504;BME280;9381;54.244;10.074;2024-03-23T03:22:21;100062.72;;;7.48;100.00
18504;BME280;9381;54.244;10.074;2024-03-23T03:27:21;100051.78;;;7.43;100.00
18504;BME280;9381;54.244;10.074;2024-03-23T03:32:22;100052.41;;;7.38;100.00
18504;BME280;9381;54.244;10.074;2024-03-23T03:37:23;100051.81;;;7.36;100.00
18504;BME280;9381;54.244;10.074;2024-03-23T03:42:23;100043.53;;;7.31;100.00
18504;BME280;9381;54.244;10.074;2024-03-23T03:47:23;100043.59;;;7.18;100.00
18504;BME280;9381;54.244;10.074;2024-03-23T03:52:23;100017.31;;;7.20;100.00
18504;BME280;9381;54.244;10.074;2024-03-23T03:57:24;100022.31;;;7.10;100.00
18504;BME280;9381;54.244;10.074;2024-03-23T04:02:24;100021.69;;;7.02;100.00
18504;BME280;9381;54.244;10.074;2024-03-23T04:07:24;100023.38;;;6.90;100.00
18504;BME280;9381;54.244;10.074;2024-03-23T04:12:25;100017.19;;;6.96;100.00
18504;BME280;9381;54.244;10.074;2024-03-23T04:17:26;100003.72;;;7.02;100.00
18504;BME280;9381;54.244;10.074;2024-03-23T04:22:31;100004.38;;;6.91;100.00
18504;BME280;9381;54.244;10.074;2024-03-23T04:27:35;100002.09;;;6.95;100.00
18504;BME280;9381;54.244;10.074;2024-03-23T04:32:36;100002.06;;;6.88;100.00
18504;BME280;9381;54.244;10.074;2024-03-23T04:37:37;99999.22;;;6.83;100.00
18504;BME280;9381;54.244;10.074;2024-03-23T04:42:40;99983.91;;;6.90;100.00
18504;BME280;9381;54.244;10.074;2024-03-23T04:47:41;99977.50;;;6.78;100.00
18504;BME280;9381;54.244;10.074;2024-03-23T04:52:41;99970.69;;;6.69;100.00
18504;BME280;9381;54.244;10.074;2024-03-23T04:57:41;99969.25;;;6.80;100.00
18504;BME280;9381;54.244;10.074;2024-03-23T05:02:43;99972.13;;;6.85;100.00
18504;BME280;9381;54.244;10.074;2024-03-23T05:07:43;99971.09;;;6.79;100.00
18504;BME280;9381;54.244;10.074;2024-03-23T05:12:44;99974.19;;;6.76;100.00
18504;BME280;9381;54.244;10.074;2024-03-23T05:17:45;99970.91;;;6.61;100.00
18504;BME280;9381;54.244;10.074;2024-03-23T05:22:46;99974.44;;;6.68;100.00
18504;BME280;9381;54.244;10.074;2024-03-23T05:27:46;99977.09;;;6.68;100.00
18504;BME280;9381;54.244;10.074;2024-03-23T05:32:47;99984.13;;;6.69;100.00
18504;BME280;9381;54.244;10.074;2024-03-23T05:37:47;99980.81;;;6.74;100.00
18504;BME280;9381;54.244;10.074;2024-03-23T05:42:47;99981.22;;;6.77;100.00
18504;BME280;9381;54.244;10.074;2024-03-23T05:47:48;99970.91;;;6.74;100.00
18504;BME280;9381;54.244;10.074;2024-03-23T05:52:49;99972.13;;;6.85;100.00
18504;BME280;9381;54.244;10.074;2024-03-23T05:57:50;99961.75;;;6.88;100.00
18504;BME280;9381;54.244;10.074;2024-03-23T06:02:50;99953.94;;;6.80;100.00
18504;BME280;9381;54.244;10.074;2024-03-23T06:07:50;99941.50;;;6.92;100.00
18504;BME280;9381;54.244;10.074;2024-03-23T06:12:51;99946.25;;;6.84;100.00
18504;BME280;9381;54.244;10.074;2024-03-23T06:17:52;99941.94;;;6.89;100.00
18504;BME280;9381;54.244;10.074;2024-03-23T06:22:52;99936.53;;;6.96;100.00
18504;BME280;9381;54.244;10.074;2024-03-23T06:27:52;99929.91;;;6.98;100.00
18504;BME280;9381;54.244;10.074;2024-03-23T06:32:53;99934.84;;;7.01;100.00
18504;BME280;9381;54.244;10.074;2024-03-23T06:37:53;99938.00;;;6.85;100.00
18504;BME280;9381;54.244;10.074;2024-03-23T06:42:54;99938.78;;;6.99;100.00
18504;BME280;9381;54.244;10.074;2024-03-23T06:47:54;99932.97;;;7.08;100.00
18504;BME280;9381;54.244;10.074;2024-03-23T06:52:55;99921.47;;;7.32;100.00
18504;BME280;9381;54.244;10.074;2024-03-23T06:57:56;99921.00;;;7.42;100.00
18504;BME280;9381;54.244;10.074;2024-03-23T07:02:56;99925.00;;;7.64;100.00
18504;BME280;9381;54.244;10.074;2024-03-23T07:07:56;99917.78;;;7.89;100.00
18504;BME280;9381;54.244;10.074;2024-03-23T07:12:56;99918.97;;;7.99;100.00
18504;BME280;9381;54.244;10.074;2024-03-23T07:17:57;99920.59;;;8.00;100.00
18504;BME280;9381;54.244;10.074;2024-03-23T07:22:57;99920.41;;;8.26;100.00
18504;BME280;9381;54.244;10.074;2024-03-23T07:27:57;99917.19;;;8.36;100.00
18504;BME280;9381;54.244;10.074;2024-03-23T07:32:58;99913.28;;;8.74;100.00
18504;BME280;9381;54.244;10.074;2024-03-23T07:37:58;99904.28;;;8.62;100.00
18504;BME280;9381;54.244;10.074;2024-03-23T07:43:05;99904.53;;;8.78;100.00
18504;BME280;9381;54.244;10.074;2024-03-23T07:48:06;99905.09;;;8.98;100.00
18504;BME280;9381;54.244;10.074;2024-03-23T07:53:06;99893.31;;;9.29;100.00
18504;BME280;9381;54.244;10.074;2024-03-23T07:58:07;99893.31;;;9.70;100.00
18504;BME280;9381;54.244;10.074;2024-03-23T08:03:07;99884.06;;;9.89;100.00
18504;BME280;9381;54.244;10.074;2024-03-23T08:08:07;99875.41;;;9.98;100.00
18504;BME280;9381;54.244;10.074;2024-03-23T08:13:08;99865.09;;;10.07;100.00
18504;BME280;9381;54.244;10.074;2024-03-23T08:18:09;99863.03;;;10.09;100.00
18504;BME280;9381;54.244;10.074;2024-03-23T08:23:09;99854.16;;;10.02;100.00
18504;BME280;9381;54.244;10.074;2024-03-23T08:28:10;99844.69;;;10.22;100.00
18504;BME280;9381;54.244;10.074;2024-03-23T08:33:10;99831.00;;;10.63;98.77
18504;BME280;9381;54.244;10.074;2024-03-23T08:38:10;99840.03;;;10.69;96.83
18504;BME280;9381;54.244;10.074;2024-03-23T08:43:11;99831.06;;;10.80;94.46
18504;BME280;9381;54.244;10.074;2024-03-23T08:48:11;99816.22;;;10.94;93.44
18504;BME280;9381;54.244;10.074;2024-03-23T08:53:11;99815.34;;;11.05;89.46
18504;BME280;9381;54.244;10.074;2024-03-23T08:58:12;99809.31;;;11.14;87.69
18504;BME280;9381;54.244;10.074;2024-03-23T09:03:13;99806.91;;;11.18;86.72
18504;BME280;9381;54.244;10.074;2024-03-23T09:08:14;99798.63;;;11.52;85.68
18504;BME280;9381;54.244;10.074;2024-03-23T09:13:14;99803.25;;;11.24;85.10
18504;BME280;9381;54.244;10.074;2024-03-23T09:18:16;99793.41;;;10.90;81.66
18504;BME280;9381;54.244;10.074;2024-03-23T09:23:17;99800.16;;;11.32;81.67
18504;BME280;9381;54.244;10.074;2024-03-23T09:28:17;99785.50;;;11.44;80.29
18504;BME280;9381;54.244;10.074;2024-03-23T09:33:17;99778.88;;;11.68;75.89
18504;BME280;9381;54.244;10.074;2024-03-23T09:38:18;99776.16;;;11.68;76.40
18504;BME280;9381;54.244;10.074;2024-03-23T09:43:19;99801.69;;;11.56;77.99
18504;BME280;9381;54.244;10.074;2024-03-23T09:48:20;99775.13;;;11.25;83.09
18504;BME280;9381;54.244;10.074;2024-03-23T09:53:20;99786.88;;;11.02;84.19
18504;BME280;9381;54.244;10.074;2024-03-23T09:58:23;99780.16;;;11.05;84.94
18504;BME280;9381;54.244;10.074;2024-03-23T10:03:23;99772.78;;;11.00;83.53
18504;BME280;9381;54.244;10.074;2024-03-23T10:08:24;99790.50;;;11.08;83.54
18504;BME280;9381;54.244;10.074;2024-03-23T10:13:27;99787.53;;;10.93;85.28
18504;BME280;9381;54.244;10.074;2024-03-23T10:18:29;99792.78;;;10.71;89.75
18504;BME280;9381;54.244;10.074;2024-03-23T10:23:29;99787.00;;;10.79;89.82
18504;BME280;9381;54.244;10.074;2024-03-23T10:28:30;99791.09;;;10.82;91.95
18504;BME280;9381;54.244;10.074;2024-03-23T10:33:30;99770.47;;;10.53;88.13
18504;BME280;9381;54.244;10.074;2024-03-23T10:38:32;99771.25;;;10.37;88.32
18504;BME280;9381;54.244;10.074;2024-03-23T10:43:33;99769.13;;;11.06;93.42
18504;BME280;9381;54.244;10.074;2024-03-23T10:48:33;99761.19;;;12.15;86.57
18504;BME280;9381;54.244;10.074;2024-03-23T10:53:34;99754.25;;;12.67;80.46
18504;BME280;9381;54.244;10.074;2024-03-23T10:58:42;99749.75;;;11.91;75.01
18504;BME280;9381;54.244;10.074;2024-03-23T11:03:46;99758.28;;;11.83;78.07
18504;BME280;9381;54.244;10.074;2024-03-23T11:08:46;99754.13;;;12.14;74.74
18504;BME280;9381;54.244;10.074;2024-03-23T11:13:51;99755.59;;;12.21;72.04
18504;BME280;9381;54.244;10.074;2024-03-23T11:18:52;99758.72;;;12.99;68.68
18504;BME280;9381;54.244;10.074;2024-03-23T11:23:52;99742.84;;;13.39;64.83
18504;BME280;9381;54.244;10.074;2024-03-23T11:29:09;99744.22;;;13.73;64.29
18504;BME280;9381;54.244;10.074;2024-03-23T11:34:09;99732.78;;;14.08;62.43
18504;BME280;9381;54.244;10.074;2024-03-23T11:39:20;99745.13;;;12.94;63.29
18504;BME280;9381;54.244;10.074;2024-03-23T11:44:22;99730.97;;;12.06;69.12
18504;BME280;9381;54.244;10.074;2024-03-23T11:49:27;99733.38;;;11.53;70.93
18504;BME280;9381;54.244;10.074;2024-03-23T11:54:28;99741.50;;;11.37;73.03
18504;BME280;9381;54.244;10.074;2024-03-23T11:59:39;99730.72;;;12.94;74.04
18504;BME280;9381;54.244;10.074;2024-03-23T12:04:44;99727.81;;;13.58;68.07
18504;BME280;9381;54.244;10.074;2024-03-23T12:09:45;99727.19;;;13.20;67.96
18504;BME280;9381;54.244;10.074;2024-03-23T12:15:05;99717.25;;;13.30;70.33
18504;BME280;9381;54.244;10.074;2024-03-23T12:20:06;99717.63;;;12.64;71.83
18504;BME280;9381;54.244;10.074;2024-03-23T12:25:07;99737.88;;;12.14;69.84
18504;BME280;9381;54.244;10.074;2024-03-23T12:30:08;99728.22;;;11.85;64.64
18504;BME280;9381;54.244;10.074;2024-03-23T12:35:09;99719.06;;;13.51;68.92
18504;BME280;9381;54.244;10.074;2024-03-23T12:40:10;99702.47;;;13.84;60.47
18504;BME280;9381;54.244;10.074;2024-03-23T12:45:10;99722.09;;;12.75;61.08
18504;BME280;9381;54.244;10.074;2024-03-23T12:50:10;99712.59;;;12.51;62.00
18504;BME280;9381;54.244;10.074;2024-03-23T12:55:11;99724.56;;;11.74;63.98
18504;BME280;9381;54.244;10.074;2024-03-23T13:00:12;99721.91;;;11.96;61.76
18504;BME280;9381;54.244;10.074;2024-03-23T13:05:13;99704.50;;;13.04;60.92
18504;BME280;9381;54.244;10.074;2024-03-23T13:10:13;99707.25;;;13.72;57.46
18504;BME280;9381;54.244;10.074;2024-03-23T13:15:14;99721.22;;;13.49;56.53
18504;BME280;9381;54.244;10.074;2024-03-23T13:20:16;99722.25;;;12.90;60.83
18504;BME280;9381;54.244;10.074;2024-03-23T13:25:17;99722.22;;;12.42;60.37
18504;BME280;9381;54.244;10.074;2024-03-23T13:30:18;99713.22;;;12.85;59.34
18504;BME280;9381;54.244;10.074;2024-03-23T13:35:19;99708.34;;;12.60;57.90
18504;BME280;9381;54.244;10.074;2024-03-23T13:40:19;99719.31;;;12.27;59.43
18504;BME280;9381;54.244;10.074;2024-03-23T13:45:20;99712.34;;;12.31;61.04
18504;BME280;9381;54.244;10.074;2024-03-23T13:50:20;99705.63;;;12.60;60.38
18504;BME280;9381;54.244;10.074;2024-03-23T13:55:21;99716.25;;;12.40;62.18
18504;BME280;9381;54.244;10.074;2024-03-23T14:00:21;99720.41;;;11.88;63.31
18504;BME280;9381;54.244;10.074;2024-03-23T14:05:22;99728.56;;;11.72;62.85
18504;BME280;9381;54.244;10.074;2024-03-23T14:10:22;99733.97;;;11.56;63.96
18504;BME280;9381;54.244;10.074;2024-03-23T14:15:22;99763.63;;;10.62;68.84
18504;BME280;9381;54.244;10.074;2024-03-23T14:20:23;99749.66;;;9.91;79.34
18504;BME280;9381;54.244;10.074;2024-03-23T14:25:23;99743.03;;;10.33;76.18
18504;BME280;9381;54.244;10.074;2024-03-23T14:30:27;99737.97;;;10.76;72.61
18504;BME280;9381;54.244;10.074;2024-03-23T14:35:27;99745.56;;;11.07;72.20
18504;BME280;9381;54.244;10.074;2024-03-23T14:40:28;99732.59;;;11.09;73.77
18504;BME280;9381;54.244;10.074;2024-03-23T14:45:29;99736.75;;;10.83;75.02
18504;BME280;9381;54.244;10.074;2024-03-23T14:50:29;99728.03;;;11.26;73.43
18504;BME280;9381;54.244;10.074;2024-03-23T14:55:29;99724.94;;;11.34;68.28
18504;BME280;9381;54.244;10.074;2024-03-23T15:00:30;99726.66;;;11.56;68.08
18504;BME280;9381;54.244;10.074;2024-03-23T15:05:31;99726.41;;;11.25;68.19
18504;BME280;9381;54.244;10.074;2024-03-23T15:10:33;99726.91;;;11.22;68.38
18504;BME280;9381;54.244;10.074;2024-03-23T15:15:38;99722.63;;;11.26;69.75
18504;BME280;9381;54.244;10.074;2024-03-23T15:20:39;99724.34;;;11.15;70.38
18504;BME280;9381;54.244;10.074;2024-03-23T15:25:39;99719.16;;;10.97;70.38
18504;BME280;9381;54.244;10.074;2024-03-23T15:30:40;99725.13;;;10.55;71.08
18504;BME280;9381;54.244;10.074;2024-03-23T15:35:40;99734.31;;;10.42;72.46
18504;BME280;9381;54.244;10.074;2024-03-23T15:40:40;99739.06;;;10.24;75.28
18504;BME280;9381;54.244;10.074;2024-03-23T15:45:41;99737.03;;;10.31;75.56
18504;BME280;9381;54.244;10.074;2024-03-23T15:50:50;99742.25;;;10.21;71.44
18504;BME280;9381;54.244;10.074;2024-03-23T15:56:00;99730.28;;;10.45;70.87
18504;BME280;9381;54.244;10.074;2024-03-23T16:01:06;99738.09;;;10.69;70.07
18504;BME280;9381;54.244;10.074;2024-03-23T16:06:07;99730.38;;;10.61;71.50
18504;BME280;9381;54.244;10.074;2024-03-23T16:11:07;99717.81;;;10.55;72.37
18504;BME280;9381;54.244;10.074;2024-03-23T16:16:10;99724.44;;;10.48;71.64
18504;BME280;9381;54.244;10.074;2024-03-23T16:21:11;99731.31;;;10.16;71.86
18504;BME280;9381;54.244;10.074;2024-03-23T16:26:11;99727.09;;;10.20;74.06
18504;BME280;9381;54.244;10.074;2024-03-23T16:31:12;99713.47;;;10.15;75.23
18504;BME280;9381;54.244;10.074;2024-03-23T16:36:13;99721.13;;;10.06;76.94
18504;BME280;9381;54.244;10.074;2024-03-23T16:41:13;99707.16;;;9.86;79.16
18504;BME280;9381;54.244;10.074;2024-03-23T16:46:15;99726.03;;;9.75;83.47
18504;BME280;9381;54.244;10.074;2024-03-23T16:51:16;99708.88;;;9.35;85.60
18504;BME280;9381;54.244;10.074;2024-03-23T16:56:16;99720.31;;;8.96;88.53
18504;BME280;9381;54.244;10.074;2024-03-23T17:01:16;99723.25;;;9.06;88.04
18504;BME280;9381;54.244;10.074;2024-03-23T17:06:20;99724.19;;;9.00;88.78
18504;BME280;9381;54.244;10.074;2024-03-23T17:11:22;99732.88;;;9.02;89.89
18504;BME280;9381;54.244;10.074;2024-03-23T17:16:23;99729.59;;;9.00;90.06
18504;BME280;9381;54.244;10.074;2024-03-23T17:21:24;99721.28;;;8.72;91.16
18504;BME280;9381;54.244;10.074;2024-03-23T17:26:24;99707.88;;;8.18;91.99
18504;BME280;9381;54.244;10.074;2024-03-23T17:31:25;99709.25;;;8.27;92.79
18504;BME280;9381;54.244;10.074;2024-03-23T17:36:25;99709.09;;;8.22;93.47
18504;BME280;9381;54.244;10.074;2024-03-23T17:41:30;99717.44;;;8.14;94.52
18504;BME280;9381;54.244;10.074;2024-03-23T17:46:30;99707.63;;;8.02;97.30
18504;BME280;9381;54.244;10.074;2024-03-23T17:51:30;99699.34;;;8.03;98.98
18504;BME280;9381;54.244;10.074;2024-03-23T17:56:31;99697.03;;;7.89;98.11
18504;BME280;9381;54.244;10.074;2024-03-23T18:01:31;99697.25;;;7.87;96.18
18504;BME280;9381;54.244;10.074;2024-03-23T18:06:31;99706.88;;;8.19;94.11
18504;BME280;9381;54.244;10.074;2024-03-23T18:11:32;99694.56;;;7.87;93.82
18504;BME280;9381;54.244;10.074;2024-03-23T18:16:33;99701.81;;;8.05;93.46
18504;BME280;9381;54.244;10.074;2024-03-23T18:21:34;99713.41;;;7.87;93.91
18504;BME280;9381;54.244;10.074;2024-03-23T18:26:34;99693.66;;;7.93;94.98
18504;BME280;9381;54.244;10.074;2024-03-23T18:31:35;99702.78;;;7.74;97.70
18504;BME280;9381;54.244;10.074;2024-03-23T18:36:35;99699.03;;;7.75;99.12
18504;BME280;9381;54.244;10.074;2024-03-23T18:41:36;99697.06;;;7.46;100.00
18504;BME280;9381;54.244;10.074;2024-03-23T18:46:36;99689.22;;;7.45;100.00
18504;BME280;9381;54.244;10.074;2024-03-23T18:51:36;99678.81;;;7.48;100.00
18504;BME280;9381;54.244;10.074;2024-03-23T18:56:37;99684.53;;;7.58;100.00
18504;BME280;9381;54.244;10.074;2024-03-23T19:01:39;99687.53;;;7.26;100.00
18504;BME280;9381;54.244;10.074;2024-03-23T19:06:40;99691.47;;;7.23;100.00
18504;BME280;9381;54.244;10.074;2024-03-23T19:11:40;99680.16;;;7.39;100.00
18504;BME280;9381;54.244;10.074;2024-03-23T19:16:41;99670.78;;;7.24;100.00
18504;BME280;9381;54.244;10.074;2024-03-23T19:21:41;99666.25;;;7.42;100.00
18504;BME280;9381;54.244;10.074;2024-03-23T19:26:44;99664.16;;;7.26;100.00
18504;BME280;9381;54.244;10.074;2024-03-23T19:31:45;99658.44;;;7.16;100.00
18504;BME280;9381;54.244;10.074;2024-03-23T19:36:45;99653.41;;;7.26;100.00
18504;BME280;9381;54.244;10.074;2024-03-23T19:41:45;99655.41;;;7.06;100.00
18504;BME280;9381;54.244;10.074;2024-03-23T19:46:46;99652.63;;;7.19;100.00
18504;BME280;9381;54.244;10.074;2024-03-23T19:51:46;99649.97;;;7.37;100.00
18504;BME280;9381;54.244;10.074;2024-03-23T19:56:46;99647.44;;;7.42;100.00
18504;BME280;9381;54.244;10.074;2024-03-23T20:01:47;99639.53;;;7.47;100.00
18504;BME280;9381;54.244;10.074;2024-03-23T20:06:48;99635.41;;;7.45;100.00
18504;BME280;9381;54.244;10.074;2024-03-23T20:11:48;99639.78;;;7.21;100.00
18504;BME280;9381;54.244;10.074;2024-03-23T20:16:49;99634.84;;;7.18;100.00
18504;BME280;9381;54.244;10.074;2024-03-23T20:21:49;99632.47;;;7.28;100.00
18504;BME280;9381;54.244;10.074;2024-03-23T20:26:50;99627.06;;;7.10;100.00
18504;BME280;9381;54.244;10.074;2024-03-23T20:31:50;99622.72;;;7.09;100.00
18504;BME280;9381;54.244;10.074;2024-03-23T20:36:52;99620.75;;;7.23;100.00
18504;BME280;9381;54.244;10.074;2024-03-23T20:41:53;99621.69;;;7.10;100.00
18504;BME280;9381;54.244;10.074;2024-03-23T20:46:53;99614.22;;;7.12;100.00
18504;BME280;9381;54.244;10.074;2024-03-23T20:51:53;99608.00;;;7.12;100.00
18504;BME280;9381;54.244;10.074;2024-03-23T20:56:54;99606.09;;;7.37;100.00
18504;BME280;9381;54.244;10.074;2024-03-23T21:01:54;99613.03;;;7.08;100.00
18504;BME280;9381;54.244;10.074;2024-03-23T21:06:54;99602.69;;;7.05;100.00
18504;BME280;9381;54.244;10.074;2024-03-23T21:11:54;99609.16;;;7.22;100.00
18504;BME280;9381;54.244;10.074;2024-03-23T21:16:55;99605.31;;;7.12;100.00
18504;BME280;9381;54.244;10.074;2024-03-23T21:21:55;99591.53;;;7.26;100.00
18504;BME280;9381;54.244;10.074;2024-03-23T21:26:55;99594.22;;;7.26;100.00
18504;BME280;9381;54.244;10.074;2024-03-23T21:31:56;99588.22;;;7.24;100.00
18504;BME280;9381;54.244;10.074;2024-03-23T21:36:56;99585.53;;;7.24;100.00
18504;BME280;9381;54.244;10.074;2024-03-23T21:41:56;99579.84;;;7.14;100.00
18504;BME280;9381;54.244;10.074;2024-03-23T21:46:57;99571.97;;;7.19;100.00
18504;BME280;9381;54.244;10.074;2024-03-23T21:51:57;99559.28;;;7.02;100.00
18504;BME280;9381;54.244;10.074;2024-03-23T21:57:01;99557.44;;;7.02;100.00
18504;BME280;9381;54.244;10.074;2024-03-23T22:02:01;99556.94;;;6.94;100.00
18504;BME280;9381;54.244;10.074;2024-03-23T22:07:01;99555.38;;;6.80;100.00
18504;BME280;9381;54.244;10.074;2024-03-23T22:12:02;99545.03;;;6.83;100.00
18504;BME280;9381;54.244;10.074;2024-03-23T22:17:03;99549.47;;;6.71;100.00
18504;BME280;9381;54.244;10.074;2024-03-23T22:22:04;99548.44;;;6.72;100.00
18504;BME280;9381;54.244;10.074;2024-03-23T22:27:06;99549.13;;;6.86;100.00
18504;BME280;9381;54.244;10.074;2024-03-23T22:32:06;99540.78;;;6.94;100.00
18504;BME280;9381;54.244;10.074;2024-03-23T22:37:07;99526.88;;;6.79;100.00
18504;BME280;9381;54.244;10.074;2024-03-23T22:42:07;99531.88;;;6.75;100.00
18504;BME280;9381;54.244;10.074;2024-03-23T22:47:07;99525.31;;;6.71;100.00
18504;BME280;9381;54.244;10.074;2024-03-23T22:52:08;99540.69;;;6.82;100.00
18504;BME280;9381;54.244;10.074;2024-03-23T22:57:08;99519.78;;;6.84;100.00
18504;BME280;9381;54.244;10.074;2024-03-23T23:02:08;99515.34;;;6.72;100.00
18504;BME280;9381;54.244;10.074;2024-03-23T23:07:08;99507.50;;;6.70;100.00
18504;BME280;9381;54.244;10.074;2024-03-23T23:12:09;99511.25;;;6.69;100.00
18504;BME280;9381;54.244;10.074;2024-03-23T23:17:09;99496.16;;;6.68;100.00
18504;BME280;9381;54.244;10.074;2024-03-23T23:22:10;99490.75;;;6.50;100.00
18504;BME280;9381;54.244;10.074;2024-03-23T23:27:10;99484.81;;;6.66;100.00
18504;BME280;9381;54.244;10.074;2024-03-23T23:32:10;99486.31;;;6.62;100.00
18504;BME280;9381;54.244;10.074;2024-03-23T23:37:11;99477.03;;;6.58;100.00
18504;BME280;9381;54.244;10.074;2024-03-23T23:42:11;99478.81;;;6.46;100.00
18504;BME280;9381;54.244;10.074;2024-03-23T23:47:11;99465.13;;;6.54;100.00
18504;BME280;9381;54.244;10.074;2024-03-23T23:52:12;99465.78;;;6.50;100.00
18504;BME280;9381;54.244;10.074;2024-03-23T23:57:14;99477.59;;;6.42;100.00
